Time;durP1;ratioP1;P1;durP2;ratioP2;P2;SDS_P1;SDS_P2;PMS_P1;PMS_P2;Temp;Humidity;BMP_temperature;BMP_pressure;BME280_temperature;BME280_humidity;BME280_pressure;Samples;Min_cycle;Max_cycle;Signal;HPM_P1;HPM_P2
2023/05/17 00:00:09;;;;;;;7.43;7.03;;;8.50;99.90;;;;;;5031445;28;20199;-65
2023/05/17 00:02:35;;;;;;;8.30;6.90;;;8.40;99.90;;;;;;5032566;28;20222;-65
2023/05/17 00:05:01;;;;;;;7.20;6.60;;;8.40;99.90;;;;;;5031746;28;20710;-65
2023/05/17 00:07:26;;;;;;;7.17;6.43;;;8.30;99.90;;;;;;5032346;28;20261;-64
2023/05/17 00:09:52;;;;;;;9.77;7.03;;;8.30;99.90;;;;;;5031509;28;20302;-64
2023/05/17 00:12:17;;;;;;;7.30;6.77;;;8.30;99.90;;;;;;5032107;28;20213;-65
2023/05/17 00:14:43;;;;;;;7.27;6.87;;;8.20;99.90;;;;;;5032072;28;20744;-65
2023/05/17 00:17:08;;;;;;;7.50;6.90;;;8.20;99.90;;;;;;5031935;28;20194;-65
2023/05/17 00:19:34;;;;;;;7.33;6.90;;;8.20;99.90;;;;;;5031467;28;20257;-65
2023/05/17 00:22:00;;;;;;;7.97;7.37;;;8.20;99.90;;;;;;5031862;28;20191;-65
2023/05/17 00:24:26;;;;;;;8.23;7.50;;;8.10;99.90;;;;;;5031665;28;20695;-65
2023/05/17 00:26:51;;;;;;;7.83;7.33;;;8.10;99.90;;;;;;5031248;28;20175;-65
2023/05/17 00:29:17;;;;;;;8.30;7.33;;;8.10;99.90;;;;;;5031526;28;20199;-65
2023/05/17 00:31:42;;;;;;;7.87;7.40;;;8.10;99.90;;;;;;5031485;28;20632;-65
2023/05/17 00:34:08;;;;;;;8.30;7.60;;;8.20;99.90;;;;;;5031666;28;20183;-65
2023/05/17 00:36:34;;;;;;;8.70;7.43;;;8.20;99.90;;;;;;5031888;28;20189;-66
2023/05/17 00:38:59;;;;;;;7.80;7.00;;;8.30;99.90;;;;;;5029806;28;20652;-65
2023/05/17 00:41:25;;;;;;;7.53;6.87;;;8.30;99.90;;;;;;5031316;28;20605;-65
2023/05/17 00:43:51;;;;;;;8.57;6.77;;;8.30;99.90;;;;;;5031269;28;20253;-65
2023/05/17 00:46:16;;;;;;;9.00;8.37;;;8.20;99.90;;;;;;5031249;28;20247;-65
2023/05/17 00:48:42;;;;;;;6.60;6.20;;;8.20;99.90;;;;;;5032341;28;20195;-65
2023/05/17 00:51:08;;;;;;;9.97;7.30;;;8.20;99.90;;;;;;5031784;28;20180;-65
2023/05/17 00:53:35;;;;;;;9.87;7.13;;;8.20;99.90;;;;;;5031376;28;20179;-65
2023/05/17 00:56:02;;;;;;;11.07;7.60;;;8.10;99.90;;;;;;5031355;28;20703;-65
2023/05/17 00:58:28;;;;;;;7.80;7.20;;;8.10;99.90;;;;;;5031627;28;20253;-65
2023/05/17 01:00:54;;;;;;;8.57;7.87;;;8.00;99.90;;;;;;5030854;28;20179;-65
2023/05/17 01:03:21;;;;;;;8.60;7.67;;;8.00;99.90;;;;;;5031277;28;20183;-65
2023/05/17 01:05:48;;;;;;;8.77;8.07;;;7.90;99.90;;;;;;5031313;28;20172;-65
2023/05/17 01:08:13;;;;;;;8.17;7.40;;;7.90;99.90;;;;;;5031197;28;20675;-65
2023/05/17 01:10:57;;;;;;;8.33;7.63;;;7.80;99.90;;;;;;5030852;28;20223;-65
2023/05/17 01:13:59;;;;;;;12.50;8.80;;;7.80;99.90;;;;;;5031590;28;20218;-65
2023/05/17 01:16:50;;;;;;;10.27;9.37;;;7.80;99.90;;;;;;5011052;28;20671;-65
2023/05/17 01:20:11;;;;;;;9.33;8.40;;;7.80;99.90;;;;;;5013850;28;20195;-64
2023/05/17 01:23:14;;;;;;;9.57;8.67;;;7.80;99.90;;;;;;5009095;28;20658;-65
2023/05/17 01:25:59;;;;;;;9.10;8.60;;;7.70;99.90;;;;;;5011459;28;20207;-65
2023/05/17 01:28:26;;;;;;;12.40;9.03;;;7.70;99.90;;;;;;5016107;28;20199;-66
2023/05/17 01:30:53;;;;;;;9.67;8.73;;;7.70;99.90;;;;;;5030628;28;20182;-65
2023/05/17 01:33:20;;;;;;;9.10;8.10;;;7.70;99.90;;;;;;5030896;28;20207;-65
2023/05/17 01:35:45;;;;;;;9.53;8.67;;;7.70;99.90;;;;;;5031113;28;20190;-65
2023/05/17 01:38:11;;;;;;;10.37;8.53;;;7.70;99.90;;;;;;5030639;28;20183;-65
2023/05/17 01:40:44;;;;;;;9.33;8.07;;;7.70;99.90;;;;;;5030595;28;20182;-65
2023/05/17 01:43:21;;;;;;;10.13;9.27;;;7.70;99.90;;;;;;5030919;28;20222;-65
2023/05/17 01:45:51;;;;;;;12.00;9.83;;;7.70;99.90;;;;;;5030919;28;20229;-65
2023/05/17 01:48:22;;;;;;;10.60;9.50;;;7.70;99.90;;;;;;5030667;28;20176;-65
2023/05/17 01:50:51;;;;;;;10.43;9.63;;;7.70;99.90;;;;;;5030547;28;20164;-65
2023/05/17 01:53:16;;;;;;;10.80;9.67;;;7.70;99.90;;;;;;5030512;28;20179;-65
2023/05/17 01:55:50;;;;;;;11.17;9.73;;;7.70;99.90;;;;;;5030939;28;20176;-65
2023/05/17 01:58:20;;;;;;;11.27;10.37;;;7.60;99.90;;;;;;5031106;28;20252;-65
2023/05/17 02:00:48;;;;;;;16.30;10.10;;;7.60;99.90;;;;;;5034542;28;20180;-65
2023/05/17 02:03:21;;;;;;;10.23;9.43;;;7.60;99.90;;;;;;5032839;28;20207;-64
2023/05/17 02:05:46;;;;;;;9.43;8.53;;;7.60;99.90;;;;;;5034774;28;20175;-65
2023/05/17 02:08:12;;;;;;;10.10;9.30;;;7.50;99.90;;;;;;5033974;28;20188;-64
2023/05/17 02:10:38;;;;;;;10.10;9.30;;;7.50;99.90;;;;;;5066862;23;20242;-66
2023/05/17 02:13:04;;;;;;;11.07;9.43;;;7.50;99.90;;;;;;5034230;28;20179;-66
2023/05/17 02:15:30;;;;;;;11.57;9.67;;;7.40;99.90;;;;;;5034783;28;20225;-66
2023/05/17 02:17:56;;;;;;;10.03;9.13;;;7.50;99.90;;;;;;5034355;28;20206;-66
2023/05/17 02:20:21;;;;;;;12.53;9.60;;;7.50;99.90;;;;;;5034271;28;20196;-66
2023/05/17 02:22:47;;;;;;;14.60;9.03;;;7.40;99.90;;;;;;5034167;28;20221;-66
2023/05/17 02:25:13;;;;;;;14.57;8.40;;;7.40;99.90;;;;;;5033915;28;20703;-66
2023/05/17 02:27:38;;;;;;;9.97;9.17;;;7.50;99.90;;;;;;5034461;28;20243;-66
2023/05/17 02:30:05;;;;;;;15.80;9.43;;;7.50;99.90;;;;;;5033967;28;20190;-66
2023/05/17 02:32:31;;;;;;;10.10;9.20;;;7.40;99.90;;;;;;5032692;28;20183;-65
2023/05/17 02:34:57;;;;;;;11.17;9.30;;;7.40;99.90;;;;;;5034144;28;20175;-66
2023/05/17 02:37:23;;;;;;;14.57;10.50;;;7.40;99.90;;;;;;5034213;28;20181;-66
2023/05/17 02:39:49;;;;;;;11.20;10.20;;;7.40;99.90;;;;;;5033449;28;20203;-66
2023/05/17 02:42:14;;;;;;;10.40;9.50;;;7.40;99.90;;;;;;5034240;28;20172;-66
2023/05/17 02:44:40;;;;;;;12.07;10.27;;;7.30;99.90;;;;;;5033523;28;20676;-66
2023/05/17 02:47:05;;;;;;;11.73;10.60;;;7.30;99.90;;;;;;5033854;28;20171;-66
2023/05/17 02:49:31;;;;;;;19.50;9.80;;;7.30;99.90;;;;;;5033283;28;20199;-66
2023/05/17 02:51:56;;;;;;;15.43;11.07;;;7.30;99.90;;;;;;5033788;28;20175;-66
2023/05/17 02:54:22;;;;;;;13.17;10.23;;;7.20;99.90;;;;;;5033614;28;20183;-66
2023/05/17 02:56:48;;;;;;;13.77;9.80;;;7.20;99.90;;;;;;5033924;28;20598;-66
2023/05/17 02:59:13;;;;;;;15.30;10.43;;;7.20;99.90;;;;;;5033086;28;20609;-66
2023/05/17 03:01:39;;;;;;;13.70;9.73;;;7.20;99.90;;;;;;5033635;28;20180;-66
2023/05/17 03:04:05;;;;;;;12.37;10.10;;;7.10;99.90;;;;;;5033295;28;20219;-66
2023/05/17 03:06:30;;;;;;;16.83;10.40;;;7.10;99.90;;;;;;5033732;28;20179;-65
2023/05/17 03:08:56;;;;;;;13.87;9.87;;;7.10;99.90;;;;;;5032694;28;20212;-66
2023/05/17 03:11:21;;;;;;;11.17;9.97;;;7.10;99.90;;;;;;5033333;28;20182;-66
2023/05/17 03:13:50;;;;;;;15.10;10.70;;;7.10;99.90;;;;;;5033523;28;20190;-66
2023/05/17 03:16:16;;;;;;;14.37;10.03;;;7.10;99.90;;;;;;5032463;28;20286;-66
2023/05/17 03:18:42;;;;;;;13.13;9.23;;;7.00;99.90;;;;;;5031969;28;20179;-66
2023/05/17 03:21:07;;;;;;;17.67;10.17;;;7.00;99.90;;;;;;5032834;28;20180;-66
2023/05/17 03:23:33;;;;;;;16.83;10.10;;;7.00;99.90;;;;;;5033159;28;20179;-66
2023/05/17 03:25:59;;;;;;;11.90;9.47;;;6.90;99.90;;;;;;5033134;28;20683;-66
2023/05/17 03:28:25;;;;;;;20.67;11.23;;;6.90;99.90;;;;;;5033223;28;20225;-66
2023/05/17 03:30:50;;;;;;;20.87;9.33;;;6.90;99.90;;;;;;5032794;28;20191;-66
2023/05/17 03:33:16;;;;;;;13.93;9.77;;;6.90;99.90;;;;;;5032939;28;20219;-66
2023/05/17 03:35:42;;;;;;;17.63;9.80;;;6.90;99.90;;;;;;5033180;28;20179;-66
2023/05/17 03:38:08;;;;;;;11.60;9.93;;;6.90;99.90;;;;;;5032831;28;20179;-66
2023/05/17 03:40:34;;;;;;;15.23;11.63;;;6.90;99.90;;;;;;5032877;28;20223;-66
2023/05/17 03:42:59;;;;;;;12.00;10.77;;;6.90;99.90;;;;;;5032741;28;20183;-66
2023/05/17 03:45:26;;;;;;;15.07;11.00;;;6.90;99.90;;;;;;5031732;28;20207;-66
2023/05/17 03:47:51;;;;;;;17.00;10.50;;;6.90;99.90;;;;;;5031371;28;20172;-66
2023/05/17 03:50:17;;;;;;;14.70;10.67;;;6.90;99.90;;;;;;5032561;28;20191;-66
2023/05/17 03:52:43;;;;;;;15.57;10.53;;;6.90;99.90;;;;;;5032658;28;20180;-66
2023/05/17 03:55:08;;;;;;;16.23;11.37;;;6.90;99.90;;;;;;5032417;28;20964;-66
2023/05/17 03:57:34;;;;;;;15.00;10.57;;;7.00;99.90;;;;;;5032785;28;20182;-65
2023/05/17 03:59:59;;;;;;;13.70;10.07;;;6.90;99.90;;;;;;5031956;28;20210;-65
2023/05/17 04:02:25;;;;;;;13.53;10.00;;;6.90;99.90;;;;;;5032664;28;20234;-65
2023/05/17 04:04:51;;;;;;;16.20;11.67;;;6.90;99.90;;;;;;5030917;28;20293;-65
2023/05/17 04:07:17;;;;;;;16.20;10.80;;;7.00;99.90;;;;;;5031221;28;20175;-65
2023/05/17 04:09:43;;;;;;;18.60;10.70;;;7.00;99.90;;;;;;5031785;28;20207;-65
2023/05/17 04:12:09;;;;;;;15.63;10.80;;;7.00;99.90;;;;;;5032529;28;20195;-65
2023/05/17 04:14:36;;;;;;;19.17;12.27;;;7.10;99.90;;;;;;5031992;28;20241;-66
2023/05/17 04:17:02;;;;;;;27.37;12.27;;;7.20;99.90;;;;;;5032179;28;20617;-65
2023/05/17 04:19:27;;;;;;;18.97;11.47;;;7.30;99.90;;;;;;5031883;28;20269;-65
2023/05/17 04:21:53;;;;;;;15.20;11.83;;;7.40;99.90;;;;;;5031249;28;20176;-65
2023/05/17 04:24:19;;;;;;;22.13;11.80;;;7.50;99.90;;;;;;5031997;28;20211;-65
2023/05/17 04:26:44;;;;;;;19.10;12.33;;;7.60;99.90;;;;;;5032059;28;20175;-65
2023/05/17 04:29:10;;;;;;;18.67;12.47;;;7.70;99.90;;;;;;5031341;28;20211;-65
2023/05/17 04:31:36;;;;;;;19.40;11.63;;;7.70;99.90;;;;;;5032024;28;20683;-65
2023/05/17 04:34:01;;;;;;;15.17;12.47;;;7.80;99.90;;;;;;5031053;28;20176;-65
2023/05/17 04:36:27;;;;;;;20.43;13.17;;;8.00;99.90;;;;;;5030715;28;20171;-65
2023/05/17 04:38:53;;;;;;;19.83;13.30;;;8.00;99.90;;;;;;5029436;28;20390;-65
2023/05/17 04:41:18;;;;;;;22.17;13.93;;;8.20;99.90;;;;;;5030479;28;20183;-65
2023/05/17 04:43:44;;;;;;;22.27;13.00;;;8.30;99.90;;;;;;5032017;28;20243;-65
2023/05/17 04:46:10;;;;;;;26.40;13.37;;;8.40;99.90;;;;;;5030355;28;20342;-65
2023/05/17 04:48:35;;;;;;;23.60;13.53;;;8.50;99.90;;;;;;5032167;28;20636;-65
2023/05/17 04:51:03;;;;;;;21.73;13.63;;;8.60;99.90;;;;;;5030992;28;20258;-65
2023/05/17 04:53:28;;;;;;;21.17;13.37;;;8.70;99.90;;;;;;5031690;28;20167;-65
2023/05/17 04:55:54;;;;;;;20.70;13.40;;;8.80;99.90;;;;;;5030084;28;20179;-65
2023/05/17 04:58:19;;;;;;;22.63;13.30;;;8.80;99.90;;;;;;5031784;28;20254;-66
2023/05/17 05:00:45;;;;;;;25.77;14.83;;;8.90;99.90;;;;;;5031443;28;20203;-65
2023/05/17 05:03:11;;;;;;;21.70;13.97;;;9.00;99.90;;;;;;5031217;28;20656;-65
2023/05/17 05:05:36;;;;;;;22.73;13.43;;;9.10;99.90;;;;;;5031171;28;20207;-65
2023/05/17 05:08:02;;;;;;;22.93;13.10;;;9.10;99.90;;;;;;5031518;28;20199;-65
2023/05/17 05:10:27;;;;;;;28.70;14.50;;;9.10;99.90;;;;;;5029526;28;20226;-65
2023/05/17 05:12:53;;;;;;;27.03;13.30;;;9.20;99.90;;;;;;5031536;28;20218;-65
2023/05/17 05:15:19;;;;;;;24.30;13.20;;;9.30;99.90;;;;;;5031050;28;20188;-65
2023/05/17 05:17:45;;;;;;;24.43;13.00;;;9.30;99.90;;;;;;5030412;28;20176;-65
2023/05/17 05:20:11;;;;;;;23.67;12.17;;;9.50;99.90;;;;;;5030546;28;20203;-65
2023/05/17 05:22:36;;;;;;;24.57;13.63;;;9.60;99.90;;;;;;5031561;28;20163;-65
2023/05/17 05:25:02;;;;;;;23.50;12.30;;;9.70;99.90;;;;;;5030793;28;20695;-66
2023/05/17 05:27:28;;;;;;;19.07;11.97;;;9.80;99.90;;;;;;5031286;28;20172;-65
2023/05/17 05:29:54;;;;;;;20.87;12.33;;;9.90;99.90;;;;;;5030456;28;20202;-65
2023/05/17 05:32:20;;;;;;;20.83;11.90;;;10.00;99.90;;;;;;5031002;28;20194;-65
2023/05/17 05:34:45;;;;;;;21.83;12.10;;;10.00;99.90;;;;;;5035292;28;20171;-65
2023/05/17 05:37:11;;;;;;;16.70;12.10;;;10.00;99.90;;;;;;5035052;28;20171;-66
2023/05/17 05:39:36;;;;;;;17.73;11.30;;;10.00;99.90;;;;;;5034731;28;20197;-65
2023/05/17 05:42:03;;;;;;;14.97;10.57;;;10.00;99.90;;;;;;5035085;28;20267;-65
2023/05/17 05:44:29;;;;;;;18.33;12.13;;;10.10;99.90;;;;;;5034812;28;20567;-65
2023/05/17 05:46:55;;;;;;;17.77;11.80;;;10.10;99.90;;;;;;5035263;28;20171;-66
2023/05/17 05:49:20;;;;;;;15.90;11.77;;;9.90;99.90;;;;;;5034381;28;20692;-65
2023/05/17 05:51:46;;;;;;;19.00;11.03;;;10.00;99.90;;;;;;5032801;28;20183;-65
2023/05/17 05:54:12;;;;;;;14.20;10.87;;;10.10;99.90;;;;;;5034606;28;20187;-65
2023/05/17 05:56:38;;;;;;;23.83;12.30;;;10.20;99.90;;;;;;5035171;28;20576;-65
2023/05/17 05:59:04;;;;;;;19.80;10.90;;;10.30;99.90;;;;;;5034248;28;20207;-65
2023/05/17 06:01:30;;;;;;;15.03;10.20;;;10.60;99.90;;;;;;5034428;28;20178;-66
2023/05/17 06:03:56;;;;;;;17.30;11.03;;;11.00;99.90;;;;;;5032709;28;20195;-65
2023/05/17 06:06:21;;;;;;;14.07;9.97;;;11.30;99.90;;;;;;5034755;28;20171;-65
2023/05/17 06:08:47;;;;;;;15.30;10.63;;;11.40;99.90;;;;;;5034348;28;20213;-66
2023/05/17 06:11:13;;;;;;;19.00;11.93;;;11.60;99.90;;;;;;5034187;28;20270;-66
2023/05/17 06:13:39;;;;;;;19.10;11.40;;;11.80;99.90;;;;;;5034552;28;20637;-65
2023/05/17 06:16:05;;;;;;;13.37;11.67;;;12.20;99.90;;;;;;5034434;28;20160;-65
2023/05/17 06:18:31;;;;;;;17.33;10.77;;;12.60;99.90;;;;;;5035894;28;20184;-65
2023/05/17 06:20:56;;;;;;;18.47;10.27;;;13.00;99.90;;;;;;5034016;28;20542;-65
2023/05/17 06:23:22;;;;;;;18.33;11.27;;;13.30;99.90;;;;;;5032962;28;20577;-65
2023/05/17 06:25:48;;;;;;;14.70;11.10;;;13.70;99.90;;;;;;5034053;28;20221;-65
2023/05/17 06:28:13;;;;;;;17.27;11.07;;;13.80;99.90;;;;;;5034317;28;20664;-65
2023/05/17 06:30:39;;;;;;;16.60;12.17;;;14.00;99.90;;;;;;5033571;28;20203;-66
2023/05/17 06:33:05;;;;;;;14.27;10.43;;;14.40;99.90;;;;;;5034212;28;20186;-65
2023/05/17 06:35:30;;;;;;;15.87;9.77;;;14.90;99.90;;;;;;5022844;28;20191;-66
2023/05/17 06:37:56;;;;;;;13.93;9.70;;;15.20;99.90;;;;;;5032827;28;20183;-65
2023/05/17 06:40:21;;;;;;;11.93;10.17;;;15.40;99.90;;;;;;5033484;28;20283;-66
2023/05/17 06:42:47;;;;;;;14.10;9.60;;;15.30;99.90;;;;;;5033789;28;20187;-65
2023/05/17 06:45:13;;;;;;;12.80;9.17;;;15.40;99.90;;;;;;5032884;28;20982;-65
2023/05/17 06:47:39;;;;;;;15.23;9.27;;;15.80;99.90;;;;;;5033965;28;20226;-66
2023/05/17 06:50:05;;;;;;;13.97;10.40;;;16.30;99.90;;;;;;5033507;28;20665;-65
2023/05/17 06:52:31;;;;;;;17.23;8.33;;;16.60;99.90;;;;;;5034087;28;20167;-66
2023/05/17 06:54:57;;;;;;;16.50;9.83;;;16.70;99.90;;;;;;5033727;28;20684;-65
2023/05/17 06:57:23;;;;;;;10.10;7.73;;;17.10;99.90;;;;;;5033824;28;20168;-65
2023/05/17 06:59:48;;;;;;;14.07;8.17;;;17.20;99.90;;;;;;5033377;28;20676;-66
2023/05/17 07:02:14;;;;;;;8.60;6.70;;;17.40;99.90;;;;;;5033557;28;20206;-66
2023/05/17 07:04:40;;;;;;;8.60;6.33;;;18.10;99.90;;;;;;5031596;28;20207;-66
2023/05/17 07:07:06;;;;;;;10.63;5.60;;;18.40;99.90;;;;;;5033651;28;20179;-65
2023/05/17 07:09:31;;;;;;;9.23;5.73;;;18.20;99.90;;;;;;5033120;28;20290;-65
2023/05/17 07:11:57;;;;;;;9.43;5.83;;;18.20;99.90;;;;;;5033384;28;20179;-66
2023/05/17 07:14:22;;;;;;;14.83;6.73;;;17.90;99.90;;;;;;5033403;28;20171;-65
2023/05/17 07:16:48;;;;;;;7.07;6.07;;;18.00;99.90;;;;;;5033496;28;20179;-65
2023/05/17 07:19:14;;;;;;;12.00;6.18;;;18.50;99.90;;;;;;5032639;28;20203;-65
2023/05/17 07:21:40;;;;;;;11.55;6.43;;;18.80;99.90;;;;;;5032485;28;20234;-65
2023/05/17 07:24:06;;;;;;;7.77;6.10;;;18.40;99.90;;;;;;5032706;28;20214;-65
2023/05/17 07:26:32;;;;;;;15.33;7.27;;;18.00;99.90;;;;;;5033088;28;20250;-65
2023/05/17 07:28:58;;;;;;;11.00;6.57;;;17.40;99.90;;;;;;5032643;28;20726;-65
2023/05/17 07:31:23;;;;;;;9.17;6.23;;;16.30;99.90;;;;;;5032447;28;20645;-65
2023/05/17 07:33:49;;;;;;;16.87;7.03;;;15.80;99.90;;;;;;5033189;28;20172;-65
2023/05/17 07:36:14;;;;;;;12.27;7.20;;;15.70;99.90;;;;;;5032452;28;20539;-65
2023/05/17 07:38:40;;;;;;;11.73;6.77;;;15.40;99.90;;;;;;5032907;28;20175;-65
2023/05/17 07:41:08;;;;;;;9.27;6.03;;;15.70;99.90;;;;;;5032252;28;20189;-65
2023/05/17 07:43:36;;;;;;;8.90;5.50;;;16.20;99.90;;;;;;5032812;28;20258;-65
2023/05/17 07:46:02;;;;;;;9.90;5.33;;;16.70;99.90;;;;;;5032334;28;20183;-65
2023/05/17 07:48:28;;;;;;;8.97;5.20;;;17.00;99.90;;;;;;5032504;28;20179;-65
2023/05/17 07:50:54;;;;;;;8.83;5.60;;;17.30;99.90;;;;;;5029771;28;20183;-65
2023/05/17 07:53:19;;;;;;;7.63;5.17;;;17.10;99.90;;;;;;5022143;28;20219;-65
2023/05/17 07:55:45;;;;;;;9.13;6.60;;;16.90;99.90;;;;;;5031779;28;20186;-65
2023/05/17 07:58:11;;;;;;;9.70;4.80;;;16.60;99.90;;;;;;5032133;28;20182;-65
2023/05/17 08:00:37;;;;;;;5.63;4.90;;;16.70;99.90;;;;;;5032344;28;20671;-65
2023/05/17 08:03:03;;;;;;;9.40;5.63;;;16.30;99.90;;;;;;5032326;28;20171;-66
2023/05/17 08:05:29;;;;;;;13.20;7.13;;;15.80;99.90;;;;;;5031112;28;20211;-65
2023/05/17 08:07:54;;;;;;;7.77;5.10;;;15.90;99.90;;;;;;5031521;28;20180;-65
2023/05/17 08:10:21;;;;;;;7.50;4.60;;;16.00;99.90;;;;;;5032692;28;20292;-64
2023/05/17 08:12:47;;;;;;;6.20;4.27;;;16.00;99.90;;;;;;5030074;28;20547;-65
2023/05/17 08:15:12;;;;;;;11.03;5.03;;;16.40;99.90;;;;;;5032130;28;20274;-65
2023/05/17 08:17:38;;;;;;;7.53;4.70;;;16.80;99.90;;;;;;5032252;28;20430;-66
2023/05/17 08:20:06;;;;;;;4.17;3.40;;;17.80;99.90;;;;;;5031995;28;20713;-65
2023/05/17 08:22:32;;;;;;;4.57;3.97;;;18.30;99.90;;;;;;5032225;28;20175;-65
2023/05/17 08:24:57;;;;;;;7.17;4.33;;;18.10;99.90;;;;;;5031894;28;20203;-65
2023/05/17 08:27:24;;;;;;;5.63;4.13;;;17.90;99.90;;;;;;5031951;28;20687;-64
2023/05/17 08:29:51;;;;;;;8.13;4.40;;;17.40;99.90;;;;;;5031585;28;20191;-65
2023/05/17 08:32:16;;;;;;;8.07;4.93;;;17.20;99.90;;;;;;5032146;28;20172;-65
2023/05/17 08:34:42;;;;;;;5.20;4.10;;;17.20;99.90;;;;;;5030555;28;20640;-65
2023/05/17 08:37:08;;;;;;;8.03;4.80;;;16.80;99.90;;;;;;5032036;28;20662;-64
2023/05/17 08:39:34;;;;;;;6.83;4.43;;;16.60;99.90;;;;;;5031365;28;20191;-65
2023/05/17 08:42:01;;;;;;;5.20;4.67;;;16.30;99.90;;;;;;5031749;28;20179;-65
2023/05/17 08:44:27;;;;;;;4.93;4.40;;;16.00;99.90;;;;;;5029758;28;20288;-65
2023/05/17 08:46:55;;;;;;;5.13;4.53;;;15.80;99.90;;;;;;5031712;28;20186;-65
2023/05/17 08:49:26;;;;;;;8.60;4.90;;;15.70;99.90;;;;;;5031205;28;20207;-65
2023/05/17 08:51:54;;;;;;;9.50;6.90;;;15.30;99.90;;;;;;5031720;28;20246;-64
2023/05/17 08:54:19;;;;;;;6.57;5.17;;;15.20;99.90;;;;;;5030510;28;20982;-65
2023/05/17 08:56:50;;;;;;;8.20;5.53;;;15.20;99.90;;;;;;5030172;28;20531;-65
2023/05/17 08:59:17;;;;;;;6.20;4.63;;;15.20;99.90;;;;;;5016516;28;20208;-65
2023/05/17 09:01:46;;;;;;;10.20;4.73;;;15.00;99.90;;;;;;5031297;28;20179;-65
2023/05/17 09:04:12;;;;;;;6.30;5.10;;;14.90;99.90;;;;;;5030166;28;20613;-65
2023/05/17 09:06:38;;;;;;;8.73;4.30;;;14.90;99.90;;;;;;5031468;28;20186;-64
2023/05/17 09:09:06;;;;;;;8.03;4.23;;;15.30;99.90;;;;;;5029581;28;20207;-64
2023/05/17 09:11:32;;;;;;;11.67;5.00;;;16.10;99.90;;;;;;5031165;28;20206;-65
2023/05/17 09:13:59;;;;;;;5.00;4.30;;;16.80;99.90;;;;;;5030946;28;20183;-65
2023/05/17 09:16:27;;;;;;;10.50;4.50;;;17.40;99.90;;;;;;5031241;28;20175;-65
2023/05/17 09:18:54;;;;;;;13.73;7.57;;;17.90;99.90;;;;;;5031028;28;20195;-65
2023/05/17 09:21:21;;;;;;;5.00;3.95;;;18.60;99.90;;;;;;5030891;28;20179;-65
2023/05/17 09:23:47;;;;;;;6.25;3.97;;;19.50;99.90;;;;;;5031064;28;20575;-65
2023/05/17 09:26:13;;;;;;;12.48;9.93;;;20.00;99.90;;;;;;5030990;28;20182;-65
2023/05/17 09:28:41;;;;;;;7.38;5.75;;;20.70;99.90;;;;;;5029663;28;20552;-65
2023/05/17 09:31:07;;;;;;;4.57;4.15;;;21.10;99.90;;;;;;5030864;28;20214;-65
2023/05/17 09:33:34;;;;;;;5.35;3.70;;;21.10;99.90;;;;;;5030842;28;20237;-65
2023/05/17 09:36:02;;;;;;;8.85;4.53;;;20.90;99.90;;;;;;5031360;28;20180;-65
2023/05/17 09:38:28;;;;;;;5.45;4.40;;;20.90;99.90;;;;;;5030959;28;20187;-65
2023/05/17 09:40:54;;;;;;;7.32;4.65;;;21.10;99.90;;;;;;5030798;28;20179;-65
2023/05/17 09:43:26;;;;;;;5.88;4.60;;;21.50;99.90;;;;;;5031002;28;20651;-65
2023/05/17 09:45:56;;;;;;;7.88;4.57;;;21.50;99.90;;;;;;5030823;28;20207;-65
2023/05/17 09:48:25;;;;;;;6.95;4.00;;;21.30;99.90;;;;;;5031369;28;20175;-66
2023/05/17 09:50:51;;;;;;;8.23;4.38;;;20.90;99.90;;;;;;5027887;28;20214;-65
2023/05/17 09:53:23;;;;;;;9.23;4.70;;;20.50;99.90;;;;;;5030876;28;20175;-65
2023/05/17 09:55:50;;;;;;;5.90;4.13;;;20.30;99.90;;;;;;5031002;28;20637;-65
2023/05/17 09:58:16;;;;;;;8.95;4.50;;;19.70;99.90;;;;;;5030744;28;20187;-65
2023/05/17 10:00:42;;;;;;;5.50;4.30;;;19.10;99.90;;;;;;5030348;28;20199;-64
2023/05/17 10:03:11;;;;;;;6.95;4.28;;;18.80;99.90;;;;;;5031186;28;20179;-65
2023/05/17 10:05:42;;;;;;;8.10;3.92;;;19.40;99.90;;;;;;5029022;28;20442;-64
2023/05/17 10:08:08;;;;;;;9.13;4.70;;;20.00;99.90;;;;;;5029679;28;20171;-65
2023/05/17 10:10:34;;;;;;;8.20;4.53;;;20.80;99.90;;;;;;5030151;28;20239;-65
2023/05/17 10:13:00;;;;;;;7.15;4.65;;;21.40;99.90;;;;;;5030708;28;20218;-65
2023/05/17 10:15:26;;;;;;;5.88;4.88;;;22.10;99.90;;;;;;5030711;28;20246;-65
2023/05/17 10:17:53;;;;;;;6.25;5.22;;;22.50;99.90;;;;;;5030795;28;20171;-65
2023/05/17 10:20:20;;;;;;;7.53;4.38;;;22.40;99.60;;;;;;5031025;28;20217;-65
2023/05/17 10:22:47;;;;;;;8.20;4.80;;;21.50;99.90;;;;;;5032235;28;20379;-65
2023/05/17 10:25:13;;;;;;;5.68;4.43;;;20.50;99.90;;;;;;5033744;28;20206;-65
2023/05/17 10:27:40;;;;;;;9.95;4.75;;;19.80;99.90;;;;;;5034266;28;20254;-65
2023/05/17 10:30:07;;;;;;;6.15;4.03;;;20.10;99.90;;;;;;5033600;28;20237;-65
2023/05/17 10:32:34;;;;;;;4.40;3.95;;;20.60;99.90;;;;;;5034214;28;20168;-65
2023/05/17 10:35:01;;;;;;;6.38;3.70;;;20.80;99.90;;;;;;5033862;28;20310;-65
2023/05/17 10:37:28;;;;;;;5.93;4.50;;;21.10;99.90;;;;;;5034395;28;20660;-65
2023/05/17 10:39:55;;;;;;;6.05;5.15;;;20.80;99.90;;;;;;5032678;28;20365;-65
2023/05/17 10:42:21;;;;;;;6.72;4.28;;;20.20;99.90;;;;;;5033376;28;20238;-65
2023/05/17 10:44:47;;;;;;;4.88;4.47;;;20.00;99.70;;;;;;5033683;28;20199;-65
2023/05/17 10:47:14;;;;;;;4.18;3.58;;;20.30;99.90;;;;;;5032646;28;20183;-65
2023/05/17 10:49:40;;;;;;;7.93;5.78;;;20.90;99.90;;;;;;5033624;28;20218;-65
2023/05/17 10:52:15;;;;;;;4.63;3.95;;;21.10;99.90;;;;;;5033578;28;20203;-65
2023/05/17 10:54:43;;;;;;;4.28;3.88;;;20.80;98.80;;;;;;5027766;28;20179;-64
2023/05/17 10:57:30;;;;;;;6.20;5.05;;;20.50;99.90;;;;;;5032553;28;20290;-65
2023/05/17 10:59:58;;;;;;;6.07;5.57;;;20.70;99.90;;;;;;5033197;28;20207;-65
2023/05/17 11:02:25;;;;;;;10.98;10.07;;;20.90;99.90;;;;;;5033920;28;20175;-65
2023/05/17 11:04:52;;;;;;;4.70;4.25;;;21.10;99.90;;;;;;5032416;28;20702;-65
2023/05/17 11:07:20;;;;;;;5.82;3.50;;;21.20;98.50;;;;;;5033659;28;20175;-65
2023/05/17 11:09:54;;;;;;;7.30;4.05;;;21.40;98.60;;;;;;5031814;28;20211;-65
2023/05/17 11:12:54;;;;;;;5.13;3.35;;;21.40;98.40;;;;;;5033338;28;20211;-65
2023/05/17 11:15:24;;;;;;;4.03;3.22;;;21.70;98.10;;;;;;5028350;28;20241;-65
2023/05/17 11:17:55;;;;;;;5.32;3.58;;;21.80;97.80;;;;;;5033414;28;20588;-65
2023/05/17 11:20:24;;;;;;;4.47;3.10;;;22.30;98.20;;;;;;5031441;28;20203;-65
2023/05/17 11:23:00;;;;;;;11.70;4.20;;;21.80;95.60;;;;;;5013485;28;20180;-65
2023/05/17 11:25:35;;;;;;;4.82;3.65;;;21.40;99.10;;;;;;5014417;28;20199;-65
2023/05/17 11:28:07;;;;;;;3.67;3.10;;;21.90;96.50;;;;;;5022641;28;20200;-65
2023/05/17 11:30:33;;;;;;;3.15;2.85;;;22.40;98.20;;;;;;5014503;28;20675;-65
2023/05/17 11:33:01;;;;;;;6.10;3.65;;;22.40;98.40;;;;;;5031815;28;20175;-65
2023/05/17 11:35:31;;;;;;;8.10;4.63;;;22.10;99.10;;;;;;5033141;28;20176;-66
2023/05/17 11:38:18;;;;;;;6.88;2.95;;;21.80;98.90;;;;;;5013135;28;20176;-66
2023/05/17 11:40:46;;;;;;;9.95;3.42;;;21.90;99.80;;;;;;5015114;28;20203;-65
2023/05/17 11:43:16;;;;;;;4.85;4.07;;;21.90;98.00;;;;;;5032838;28;20203;-65
2023/05/17 11:45:50;;;;;;;6.85;3.92;;;21.50;96.50;;;;;;5032725;28;20195;-65
2023/05/17 11:48:18;;;;;;;4.45;3.65;;;21.40;97.00;;;;;;5032517;28;20178;-65
2023/05/17 11:50:46;;;;;;;4.35;3.63;;;21.10;96.10;;;;;;5032196;28;20218;-65
2023/05/17 11:53:12;;;;;;;5.88;3.42;;;21.00;97.80;;;;;;5032576;28;20192;-65
2023/05/17 11:55:46;;;;;;;5.95;3.92;;;21.10;94.90;;;;;;5031887;28;20184;-65
2023/05/17 11:58:33;;;;;;;6.35;3.58;;;21.70;96.90;;;;;;5032342;28;20179;-67
2023/05/17 12:00:58;;;;;;;3.63;3.20;;;21.80;95.90;;;;;;5029397;28;20202;-65
2023/05/17 12:03:26;;;;;;;6.55;5.18;;;21.30;96.30;;;;;;5032623;28;20539;-65
2023/05/17 12:06:12;;;;;;;5.85;4.10;;;20.90;97.70;;;;;;5030931;28;20199;-64
2023/05/17 12:08:45;;;;;;;6.25;4.13;;;20.90;97.40;;;;;;5032008;28;20229;-65
2023/05/17 12:11:13;;;;;;;6.13;4.10;;;20.80;98.50;;;;;;5031963;28;20221;-65
2023/05/17 12:13:41;;;;;;;6.70;4.80;;;21.00;98.10;;;;;;5032004;28;20206;-64
2023/05/17 12:16:10;;;;;;;5.57;3.92;;;21.10;97.50;;;;;;5032187;28;20175;-65
2023/05/17 12:18:44;;;;;;;3.70;3.28;;;21.20;94.50;;;;;;5032014;28;20548;-64
2023/05/17 12:21:13;;;;;;;7.90;3.80;;;21.40;94.20;;;;;;5031662;28;20207;-65
2023/05/17 12:23:42;;;;;;;6.57;4.30;;;21.50;95.20;;;;;;5012259;28;20255;-65
2023/05/17 12:26:07;;;;;;;4.20;3.80;;;21.70;97.80;;;;;;5027469;28;20202;-65
2023/05/17 12:28:35;;;;;;;5.07;3.20;;;21.90;95.50;;;;;;5032000;28;20171;-64
2023/05/17 12:31:02;;;;;;;6.22;4.05;;;21.20;94.40;;;;;;5031113;28;20237;-65
2023/05/17 12:33:39;;;;;;;5.93;3.88;;;20.40;96.30;;;;;;5021969;28;20172;-65
2023/05/17 12:36:07;;;;;;;3.95;3.40;;;20.40;99.90;;;;;;5025896;28;20410;-64
2023/05/17 12:38:33;;;;;;;4.57;4.03;;;20.90;97.90;;;;;;5031695;28;20226;-65
2023/05/17 12:41:01;;;;;;;3.72;3.42;;;21.10;98.20;;;;;;5031064;28;20179;-65
2023/05/17 12:43:28;;;;;;;4.00;3.60;;;21.20;94.70;;;;;;5031079;28;20171;-64